Time;durP1;ratioP1;P1;durP2;ratioP2;P2;SDS_P1;SDS_P2;PMS_P1;PMS_P2;Temp;Humidity;BMP_temperature;BMP_pressure;BME280_temperature;BME280_humidity;BME280_pressure;Samples;Min_cycle;Max_cycle;Signal;HPM_P1;HPM_P2
2023/05/25 00:00:39;;;;;;;;;;;;;;;16.67;86.21;99410.56;4378893;32;32899;-94
2023/05/25 00:03:51;;;;;;;;;;;;;;;16.51;87.42;99404.13;4398923;27;34129;-95
2023/05/25 00:07:28;;;;;;;;;;;;;;;16.81;84.74;99409.25;4417903;27;35471;-95
2023/05/25 00:11:18;;;;;;;;;;;;;;;16.75;84.57;99412.09;4422861;27;35353;-95
2023/05/25 00:13:51;;;;;;;;;;;;;;;16.32;87.24;99417.03;4394491;32;33060;-95
2023/05/25 00:16:19;;;;;;;;;;;;;;;16.32;87.18;99411.78;4382626;32;34950;-95
2023/05/25 00:18:49;;;;;;;;;;;;;;;16.67;85.33;99417.62;4394241;32;36065;-95
2023/05/25 00:21:19;;;;;;;;;;;;;;;16.52;86.10;99416.38;4394362;32;33878;-96
2023/05/25 00:24:54;;;;;;;;;;;;;;;16.20;87.92;99404.28;4420143;27;34517;-95
2023/05/25 00:28:13;;;;;;;;;;;;;;;16.11;87.85;99403.69;4412329;32;35481;-94
2023/05/25 00:30:42;;;;;;;;;;;;;;;16.04;88.67;99409.19;4410374;32;35287;-95
2023/05/25 00:33:28;;;;;;;;;;;;;;;16.09;87.71;99405.53;4426015;27;33824;-95
2023/05/25 00:37:38;;;;;;;;;;;;;;;16.09;88.38;99402.03;4419114;27;30941;-94
2023/05/25 00:41:52;;;;;;;;;;;;;;;16.28;87.42;99411.00;4379875;27;35304;-95
2023/05/25 00:44:22;;;;;;;;;;;;;;;15.76;90.02;99417.06;4382313;32;35398;-95
2023/05/25 00:50:35;;;;;;;;;;;;;;;15.89;89.59;99416.66;4405994;27;34198;-95
2023/05/25 00:54:00;;;;;;;;;;;;;;;15.95;89.66;99425.25;4423560;27;32961;-94
2023/05/25 00:57:26;;;;;;;;;;;;;;;15.55;91.35;99422.06;4413903;27;36589;-95
2023/05/25 00:59:54;;;;;;;;;;;;;;;15.70;90.48;99412.84;4393450;32;34648;-95
2023/05/25 01:02:32;;;;;;;;;;;;;;;15.62;91.28;99415.72;4401869;32;33270;-96
2023/05/25 01:06:16;;;;;;;;;;;;;;;15.64;91.33;99421.78;4432833;27;34753;-95
2023/05/25 01:08:46;;;;;;;;;;;;;;;15.31;93.10;99416.59;4409911;32;34539;-96
2023/05/25 01:11:19;;;;;;;;;;;;;;;15.41;92.72;99424.22;4409343;32;34571;-95
2023/05/25 01:13:47;;;;;;;;;;;;;;;15.41;92.31;99418.97;4409396;32;33440;-96
2023/05/25 01:16:15;;;;;;;;;;;;;;;15.11;93.54;99421.56;4411139;32;34222;-95
2023/05/25 01:19:32;;;;;;;;;;;;;;;14.86;95.43;99424.88;4408016;27;35882;-94
2023/05/25 01:22:48;;;;;;;;;;;;;;;14.85;95.12;99427.53;4382847;27;34881;-96
2023/05/25 01:25:29;;;;;;;;;;;;;;;15.06;93.14;99423.47;4380818;32;33104;-95
2023/05/25 01:28:16;;;;;;;;;;;;;;;14.87;94.06;99426.56;4402258;27;33352;-94
2023/05/25 01:31:53;;;;;;;;;;;;;;;15.06;94.48;99434.81;4417815;27;37086;-95
2023/05/25 01:35:35;;;;;;;;;;;;;;;14.84;94.56;99429.28;4419197;27;36070;-95
2023/05/25 01:38:49;;;;;;;;;;;;;;;14.89;93.34;99429.16;4395460;32;33317;-94
2023/05/25 01:41:17;;;;;;;;;;;;;;;14.68;97.08;99430.56;4395228;32;34807;-93
2023/05/25 01:44:38;;;;;;;;;;;;;;;14.58;97.02;99433.44;4396374;27;36044;-94
2023/05/25 01:48:20;;;;;;;;;;;;;;;14.49;97.88;99431.03;4351820;32;35665;-94
2023/05/25 01:50:56;;;;;;;;;;;;;;;14.44;97.77;99427.66;4360673;32;33368;-94
2023/05/25 01:53:42;;;;;;;;;;;;;;;14.34;98.95;99436.66;4451859;27;35008;-93
2023/05/25 01:56:54;;;;;;;;;;;;;;;15.23;91.44;99434.34;4372908;32;34469;-94
2023/05/25 01:59:21;;;;;;;;;;;;;;;14.68;98.31;99443.69;4364439;32;34585;-95
2023/05/25 02:01:50;;;;;;;;;;;;;;;15.02;93.71;99445.41;4364110;32;32951;-94
2023/05/25 02:04:21;;;;;;;;;;;;;;;14.53;98.32;99434.44;4364151;32;35105;-94
2023/05/25 02:06:52;;;;;;;;;;;;;;;15.03;95.86;99444.50;4353723;32;34044;-94
2023/05/25 02:09:37;;;;;;;;;;;;;;;15.14;95.80;99445.06;4399850;27;33917;-94
2023/05/25 02:12:51;;;;;;;;;;;;;;;14.88;96.94;99441.41;4408083;27;32953;-94
2023/05/25 02:15:20;;;;;;;;;;;;;;;15.07;97.34;99438.28;4381225;32;35018;-96
2023/05/25 02:17:56;;;;;;;;;;;;;;;15.34;94.71;99436.66;4390047;32;35242;-93
2023/05/25 02:21:31;;;;;;;;;;;;;;;15.02;97.12;99445.41;4422452;27;35941;-96
2023/05/25 02:24:46;;;;;;;;;;;;;;;15.00;96.55;99447.22;4425626;27;33868;-93
2023/05/25 02:28:37;;;;;;;;;;;;;;;14.75;98.64;99447.88;4380529;32;33542;-93
2023/05/25 02:31:05;;;;;;;;;;;;;;;14.79;97.50;99450.38;4408186;32;35349;-95
2023/05/25 02:34:00;;;;;;;;;;;;;;;14.54;98.18;99444.87;4409605;32;33583;-94
2023/05/25 02:38:22;;;;;;;;;;;;;;;14.45;99.47;99447.72;4419711;27;34077;-94
2023/05/25 02:42:10;;;;;;;;;;;;;;;14.70;96.04;99444.50;4381750;27;33597;-95
2023/05/25 02:44:38;;;;;;;;;;;;;;;14.69;97.49;99453.28;4378676;32;35738;-95
2023/05/25 02:47:11;;;;;;;;;;;;;;;14.37;98.71;99452.31;4384113;32;35396;-93
2023/05/25 02:50:47;;;;;;;;;;;;;;;14.28;100.00;99456.00;4398702;27;32901;-94
2023/05/25 02:53:45;;;;;;;;;;;;;;;14.26;100.00;99454.28;4396914;27;31596;-94
2023/05/25 02:57:37;;;;;;;;;;;;;;;14.39;100.00;99455.72;4397660;32;35775;-94
2023/05/25 03:00:06;;;;;;;;;;;;;;;14.73;98.11;99454.91;4367468;32;34439;-95
2023/05/25 03:02:37;;;;;;;;;;;;;;;14.46;100.00;99462.53;4399207;32;33026;-93
2023/05/25 03:06:24;;;;;;;;;;;;;;;15.01;97.48;99460.28;4422767;27;34675;-95
2023/05/25 03:10:05;;;;;;;;;;;;;;;14.75;99.73;99460.97;4389711;32;35119;-94
2023/05/25 03:13:23;;;;;;;;;;;;;;;15.32;95.18;99465.56;4365430;32;33986;-94
2023/05/25 03:15:54;;;;;;;;;;;;;;;14.91;99.47;99475.41;4365970;32;33194;-94
2023/05/25 03:18:46;;;;;;;;;;;;;;;15.07;99.57;99477.63;4407423;27;35136;-95
2023/05/25 03:22:39;;;;;;;;;;;;;;;15.12;100.00;99470.47;4398932;27;34755;-94
2023/05/25 03:25:10;;;;;;;;;;;;;;;15.39;99.05;99474.13;4383058;32;34262;-95
2023/05/25 03:27:38;;;;;;;;;;;;;;;15.40;99.49;99477.59;4396761;32;32599;-95
2023/05/25 03:30:07;;;;;;;;;;;;;;;15.68;98.87;99472.41;4397078;32;34873;-94
2023/05/25 03:32:35;;;;;;;;;;;;;;;15.56;98.82;99478.88;4395337;32;34957;-96
2023/05/25 03:35:04;;;;;;;;;;;;;;;15.73;98.87;99481.00;4394357;32;33273;-95
2023/05/25 03:37:32;;;;;;;;;;;;;;;15.75;97.32;99478.38;4383089;32;32454;-94
2023/05/25 03:40:03;;;;;;;;;;;;;;;15.73;96.33;99475.75;4396796;32;35002;-94
2023/05/25 03:42:53;;;;;;;;;;;;;;;15.75;95.04;99479.22;4395478;27;33799;-95
2023/05/25 03:47:12;;;;;;;;;;;;;;;15.87;94.06;99483.25;4387515;32;35802;-95
2023/05/25 03:49:40;;;;;;;;;;;;;;;15.92;93.02;99490.09;4367293;32;32880;-94
2023/05/25 03:52:24;;;;;;;;;;;;;;;15.95;93.00;99483.03;4391649;27;34274;31
2023/05/25 03:56:36;;;;;;;;;;;;;;;15.62;94.27;99488.31;4415708;27;36232;-94
2023/05/25 04:00:28;;;;;;;;;;;;;;;16.18;91.19;99492.81;4485631;27;36248;-96
2023/05/25 04:04:19;;;;;;;;;;;;;;;16.30;91.28;99497.69;4378538;32;30260;-95
2023/05/25 04:07:23;;;;;;;;;;;;;;;16.26;91.32;99499.56;4380084;27;33236;-94
2023/05/25 04:10:00;;;;;;;;;;;;;;;16.42;90.29;99502.56;4394962;27;34312;-95
2023/05/25 04:13:16;;;;;;;;;;;;;;;16.18;91.33;99508.56;4409488;27;34991;-96
2023/05/25 04:17:31;;;;;;;;;;;;;;;16.43;89.99;99509.53;4390108;27;33465;-96
2023/05/25 04:20:09;;;;;;;;;;;;;;;16.18;93.79;99514.69;4469382;27;33963;-95
2023/05/25 04:22:50;;;;;;;;;;;;;;;16.42;91.97;99513.06;4390494;32;35172;-93
2023/05/25 04:25:33;;;;;;;;;;;;;;;16.66;90.74;99518.44;4398429;27;34086;-95
2023/05/25 04:28:44;;;;;;;;;;;;;;;16.99;89.49;99523.50;4436797;27;33229;-95
2023/05/25 04:32:53;;;;;;;;;;;;;;;16.94;89.64;99525.44;4396525;27;34082;-93
2023/05/25 04:36:19;;;;;;;;;;;;;;;17.02;89.25;99526.03;4346617;27;35281;-95
2023/05/25 04:39:52;;;;;;;;;;;;;;;17.49;85.26;99527.91;4364644;27;35358;-94
2023/05/25 04:43:38;;;;;;;;;;;;;;;17.78;82.32;99529.47;4337328;27;33969;-96
2023/05/25 04:47:39;;;;;;;;;;;;;;;17.20;87.31;99522.75;4363544;27;35276;-95
2023/05/25 04:50:28;;;;;;;;;;;;;;;17.67;83.63;99523.75;4370267;27;35545;-95
2023/05/25 04:52:58;;;;;;;;;;;;;;;17.73;83.83;99526.16;4358141;33;34637;-94
2023/05/25 04:55:27;;;;;;;;;;;;;;;17.89;82.35;99534.38;4370929;27;32944;-95
2023/05/25 04:57:58;;;;;;;;;;;;;;;18.00;81.57;99530.41;4412358;27;34303;-96
2023/05/25 05:00:27;;;;;;;;;;;;;;;17.66;85.24;99529.94;4355379;27;36080;-95
2023/05/25 05:02:55;;;;;;;;;;;;;;;17.80;85.18;99528.50;4375445;32;34844;-95
2023/05/25 05:05:23;;;;;;;;;;;;;;;18.19;80.65;99524.44;4396234;32;34066;-95
2023/05/25 05:08:36;;;;;;;;;;;;;;;18.17;80.38;99531.53;4407257;27;34245;-96
2023/05/25 05:12:58;;;;;;;;;;;;;;;18.05;82.18;99542.56;4370408;27;34839;-94
2023/05/25 05:16:20;;;;;;;;;;;;;;;18.42;81.71;99535.84;4345446;27;35843;-95
2023/05/25 05:23:39;;;;;;;;;;;;;;;19.65;75.43;99533.31;4332083;33;35178;-96
2023/05/25 05:26:14;;;;;;;;;;;;;;;20.00;73.86;99541.47;4332906;33;35220;-95
2023/05/25 05:28:44;;;;;;;;;;;;;;;20.26;74.25;99541.09;4320764;33;33300;-94
2023/05/25 05:31:19;;;;;;;;;;;;;;;20.34;73.86;99531.94;4332995;33;33279;-95
2023/05/25 05:35:12;;;;;;;;;;;;;;;19.62;76.17;99536.09;4274867;33;35750;-95
2023/05/25 05:38:49;;;;;;;;;;;;;;;20.30;74.53;99543.59;4262646;33;35177;-94
2023/05/25 05:41:20;;;;;;;;;;;;;;;20.89;69.69;99546.91;4274629;33;33809;-94
2023/05/25 05:45:20;;;;;;;;;;;;;;;20.65;69.78;99549.84;4315063;27;33822;-95
2023/05/25 05:52:29;;;;;;;;;;;;;;;20.96;69.22;99549.16;4257036;33;35356;-94
2023/05/25 05:54:58;;;;;;;;;;;;;;;21.38;64.99;99547.06;4301971;33;35289;-95
2023/05/25 05:57:27;;;;;;;;;;;;;;;21.41;67.25;99552.22;4304749;33;33603;-95
2023/05/25 05:59:55;;;;;;;;;;;;;;;21.69;65.83;99559.59;4304169;33;34004;-95
2023/05/25 06:02:39;;;;;;;;;;;;;;;21.65;65.68;99560.69;4328204;27;34967;-95
2023/05/25 06:05:56;;;;;;;;;;;;;;;21.85;65.50;99559.63;4397171;27;36240;-94
2023/05/25 06:08:45;;;;;;;;;;;;;;;22.37;64.41;99557.75;4374920;32;32504;-94
2023/05/25 06:11:12;;;;;;;;;;;;;;;21.96;64.34;99562.56;4377531;32;34002;-95
2023/05/25 06:13:50;;;;;;;;;;;;;;;22.45;62.88;99563.47;4364099;32;34086;-95
2023/05/25 06:16:18;;;;;;;;;;;;;;;22.32;63.60;99558.87;4378544;32;33900;-95
2023/05/25 06:18:52;;;;;;;;;;;;;;;22.16;63.44;99565.91;4400672;27;32514;-95
2023/05/25 06:21:54;;;;;;;;;;;;;;;22.20;63.70;99567.47;4417879;27;35549;-94
2023/05/25 06:24:22;;;;;;;;;;;;;;;22.33;65.35;99575.63;4400888;32;36045;-95
2023/05/25 06:26:50;;;;;;;;;;;;;;;22.67;61.79;99579.03;4414011;32;34609;-94
2023/05/25 06:29:20;;;;;;;;;;;;;;;22.42;63.52;99575.09;4416916;27;33078;-95
2023/05/25 06:31:49;;;;;;;;;;;;;;;22.76;62.56;99573.19;4403242;32;34979;-94
2023/05/25 06:34:19;;;;;;;;;;;;;;;22.94;60.30;99581.03;4416142;32;35793;-95
2023/05/25 06:41:18;;;;;;;;;;;;;;;22.78;60.53;99576.59;4354538;27;32910;-94
2023/05/25 06:45:34;;;;;;;;;;;;;;;23.10;62.02;99571.25;4363147;27;35739;-94
2023/05/25 06:48:41;;;;;;;;;;;;;;;23.30;60.74;99574.56;4364830;32;35294;-96
2023/05/25 06:51:10;;;;;;;;;;;;;;;23.66;58.83;99577.66;4374127;32;34292;-95
2023/05/25 06:53:49;;;;;;;;;;;;;;;23.76;58.96;99580.59;4399606;32;33220;-96
2023/05/25 06:56:22;;;;;;;;;;;;;;;23.52;59.08;99571.44;4412269;32;34042;-95
2023/05/25 07:00:10;;;;;;;;;;;;;;;23.72;60.03;99580.84;4410072;27;34726;-95
2023/05/25 07:03:51;;;;;;;;;;;;;;;24.34;57.49;99586.75;4476110;27;34732;-94
2023/05/25 07:16:07;;;;;;;;;;;;;;;24.50;57.86;99580.44;4371481;27;35993;-94
2023/05/25 07:18:43;;;;;;;;;;;;;;;24.02;59.09;99586.97;4302365;33;35063;-95
2023/05/25 07:21:12;;;;;;;;;;;;;;;24.73;55.93;99594.94;4395363;27;33006;-94
2023/05/25 07:23:51;;;;;;;;;;;;;;;24.68;57.25;99594.41;4393330;32;33828;-95
2023/05/25 07:26:21;;;;;;;;;;;;;;;24.62;56.10;99597.44;4383737;32;35090;-94
2023/05/25 07:33:54;;;;;;;;;;;;;;;24.93;56.98;99593.62;4358642;32;31695;-95
2023/05/25 07:36:23;;;;;;;;;;;;;;;24.92;55.81;99594.59;4387005;32;34895;-94
2023/05/25 07:40:23;;;;;;;;;;;;;;;24.30;56.33;99589.69;4379664;32;36502;-95
2023/05/25 07:42:56;;;;;;;;;;;;;;;25.11;54.51;99597.75;4396750;32;34603;-94
2023/05/25 07:45:24;;;;;;;;;;;;;;;25.55;55.24;99595.69;4395689;32;33298;-96
2023/05/25 07:47:55;;;;;;;;;;;;;;;25.34;55.47;99600.69;4387666;32;34232;-95
2023/05/25 07:50:47;;;;;;;;;;;;;;;25.33;55.05;99594.50;4406699;27;35082;-95
2023/05/25 07:53:21;;;;;;;;;;;;;;;25.66;54.15;99600.28;4428857;27;34791;-95
2023/05/25 07:56:16;;;;;;;;;;;;;;;25.23;55.07;99597.87;4409827;27;33569;-94
2023/05/25 07:58:48;;;;;;;;;;;;;;;25.69;55.36;99602.75;4395417;32;34038;-96
2023/05/25 08:01:17;;;;;;;;;;;;;;;26.07;53.75;99599.25;4382923;32;34039;-95
2023/05/25 08:03:46;;;;;;;;;;;;;;;25.94;52.72;99591.22;4384149;32;35380;-93
2023/05/25 08:06:20;;;;;;;;;;;;;;;26.02;52.57;99594.22;4402228;27;33260;-94
2023/05/25 08:08:54;;;;;;;;;;;;;;;26.10;51.52;99594.53;4409873;32;33835;-96
2023/05/25 08:11:23;;;;;;;;;;;;;;;26.25;51.10;99595.25;4397477;32;33952;-94
2023/05/25 08:13:58;;;;;;;;;;;;;;;26.10;51.17;99601.66;4411416;32;34293;-95
2023/05/25 08:16:27;;;;;;;;;;;;;;;26.39;54.94;99596.06;4406691;27;33350;-95
2023/05/25 08:19:01;;;;;;;;;;;;;;;26.14;52.60;99602.31;4416886;27;34551;-95
2023/05/25 08:26:10;;;;;;;;;;;;;;;26.63;51.46;99599.66;4382960;32;35788;-94
2023/05/25 08:29:09;;;;;;;;;;;;;;;26.95;51.04;99601.75;4383003;32;33430;-96
2023/05/25 08:36:15;;;;;;;;;;;;;;;26.60;52.27;99602.50;4396631;27;34904;-94
2023/05/25 08:38:44;;;;;;;;;;;;;;;27.03;49.97;99606.53;4364098;32;34606;-94
2023/05/25 08:41:23;;;;;;;;;;;;;;;27.54;48.33;99611.56;4373566;27;33754;-95
2023/05/25 08:43:56;;;;;;;;;;;;;;;26.94;50.77;99597.37;4366251;32;35043;-96
2023/05/25 08:51:07;;;;;;;;;;;;;;;27.01;48.93;99606.63;4377737;27;35879;-96
2023/05/25 08:57:44;;;;;;;;;;;;;;;27.90;49.21;99608.81;4335445;33;35726;-95
2023/05/25 09:00:13;;;;;;;;;;;;;;;27.72;47.68;99603.94;4336419;33;36025;-96
2023/05/25 09:02:45;;;;;;;;;;;;;;;28.06;47.65;99603.13;4348242;32;32994;-96
2023/05/25 09:05:13;;;;;;;;;;;;;;;27.53;49.51;99614.38;4380281;32;33969;-95
2023/05/25 09:08:08;;;;;;;;;;;;;;;26.71;49.81;99617.78;4526460;27;35217;-94
2023/05/25 09:12:13;;;;;;;;;;;;;;;27.16;49.78;99612.66;4384523;27;36716;-95
2023/05/25 09:16:13;;;;;;;;;;;;;;;27.38;50.35;99611.91;4400968;27;34951;-94
2023/05/25 09:18:50;;;;;;;;;;;;;;;27.09;49.60;99605.19;4366378;32;32132;-96
2023/05/25 09:21:21;;;;;;;;;;;;;;;27.14;49.00;99603.91;4355836;32;33052;-96
2023/05/25 09:28:34;;;;;;;;;;;;;;;27.87;47.73;99609.94;4344712;27;34925;-95
2023/05/25 09:31:02;;;;;;;;;;;;;;;26.85;51.35;99609.59;4345977;33;33815;-95
2023/05/25 09:33:30;;;;;;;;;;;;;;;26.59;50.51;99613.31;4335205;33;34994;-96
2023/05/25 09:35:58;;;;;;;;;;;;;;;26.87;48.66;99612.16;4334640;33;34118;-94
2023/05/25 09:38:26;;;;;;;;;;;;;;;26.16;51.23;99611.09;4350829;27;35378;-96
2023/05/25 09:40:57;;;;;;;;;;;;;;;26.36;51.88;99606.97;4353343;32;33088;-95
2023/05/25 09:43:26;;;;;;;;;;;;;;;27.37;51.48;99615.56;4366692;32;33996;-95
2023/05/25 09:46:09;;;;;;;;;;;;;;;27.37;51.81;99612.87;4367187;32;35239;-95
2023/05/25 09:49:34;;;;;;;;;;;;;;;26.55;52.11;99612.69;4371757;27;35094;-94
2023/05/25 09:57:31;;;;;;;;;;;;;;;27.28;47.82;99612.72;4335056;27;35640;-96
2023/05/25 10:01:35;;;;;;;;;;;;;;;27.27;50.29;99611.00;4436126;27;35403;-95
2023/05/25 10:04:04;;;;;;;;;;;;;;;27.63;48.87;99618.03;4321495;33;34137;-95
2023/05/25 10:07:11;;;;;;;;;;;;;;;28.10;45.33;99616.16;4325862;33;32968;-95
2023/05/25 10:10:46;;;;;;;;;;;;;;;27.93;46.11;99613.97;4341194;27;33238;31
2023/05/25 10:19:21;;;;;;;;;;;;;;;28.59;46.54;99607.84;4305679;33;34835;-95
2023/05/25 10:23:14;;;;;;;;;;;;;;;28.65;46.51;99608.22;4309657;28;34142;-95
2023/05/25 10:25:57;;;;;;;;;;;;;;;28.74;46.36;99603.94;4323682;33;34222;-96
2023/05/25 10:29:06;;;;;;;;;;;;;;;28.16;48.54;99607.63;4375849;27;35934;-96
2023/05/25 10:32:49;;;;;;;;;;;;;;;28.43;45.46;99598.38;4413695;27;34921;31
2023/05/25 10:39:42;;;;;;;;;;;;;;;27.85;50.98;99581.56;4406661;32;34426;-95
2023/05/25 10:51:38;;;;;;;;;;;;;;;28.82;45.15;99584.53;4427214;27;34491;-95
2023/05/25 10:54:07;;;;;;;;;;;;;;;26.72;49.28;99581.22;4371788;32;32711;-96
2023/05/25 10:56:56;;;;;;;;;;;;;;;27.47;47.84;99588.09;4398632;32;35140;-95
2023/05/25 11:01:00;;;;;;;;;;;;;;;27.23;50.10;99578.28;4412652;27;36138;-96
2023/05/25 11:05:25;;;;;;;;;;;;;;;28.09;45.88;99579.66;4336966;27;34568;-95
2023/05/25 11:08:58;;;;;;;;;;;;;;;27.27;45.41;99577.13;4354535;32;33160;-96
2023/05/25 11:11:44;;;;;;;;;;;;;;;26.54;48.75;99578.06;4368647;32;35007;-94
2023/05/25 11:14:20;;;;;;;;;;;;;;;26.39;47.31;99572.88;4368880;32;34802;-96
2023/05/25 11:17:09;;;;;;;;;;;;;;;26.76;46.67;99566.69;4369651;32;34092;-95
2023/05/25 11:21:25;;;;;;;;;;;;;;;26.47;50.02;99573.19;4370713;27;35085;-95
2023/05/25 11:24:01;;;;;;;;;;;;;;;26.98;49.88;99566.78;4351758;32;35180;-95
2023/05/25 11:26:50;;;;;;;;;;;;;;;27.22;47.12;99566.72;4358253;27;34695;-96
2023/05/25 11:30:48;;;;;;;;;;;;;;;27.12;47.12;99562.22;4336896;27;33717;-95
2023/05/25 11:34:10;;;;;;;;;;;;;;;27.51;47.89;99560.97;4311217;27;32639;-96
2023/05/25 11:37:09;;;;;;;;;;;;;;;27.21;47.39;99561.50;4323849;33;35063;-95
2023/05/25 11:41:42;;;;;;;;;;;;;;;26.65;50.43;99552.31;4353226;28;36254;-94
2023/05/25 11:46:07;;;;;;;;;;;;;;;26.61;51.92;99558.87;4303599;27;34820;-96
2023/05/25 11:57:28;;;;;;;;;;;;;;;27.79;47.31;99534.75;4227342;28;37143;-95
2023/05/25 12:01:30;;;;;;;;;;;;;;;28.12;46.00;99539.25;4230552;28;34767;-96
2023/05/25 12:04:08;;;;;;;;;;;;;;;28.05;48.03;99530.00;4275562;28;32247;-95
2023/05/25 12:11:08;;;;;;;;;;;;;;;28.33;44.27;99525.94;4302201;28;35652;-95
2023/05/25 12:13:57;;;;;;;;;;;;;;;28.08;47.62;99529.78;4282975;33;34100;-95
2023/05/25 12:17:09;;;;;;;;;;;;;;;28.30;47.07;99523.50;4344408;27;34462;-95
2023/05/25 12:20:51;;;;;;;;;;;;;;;28.42;44.31;99524.34;4349264;27;33927;-95
2023/05/25 12:23:59;;;;;;;;;;;;;;;28.21;48.35;99526.09;4308740;33;32891;-96
2023/05/25 12:27:17;;;;;;;;;;;;;;;28.69;43.94;99513.19;4303281;33;33431;-96
2023/05/25 12:31:09;;;;;;;;;;;;;;;28.46;47.14;99519.59;4366039;27;20031;-95
2023/05/25 12:35:31;;;;;;;;;;;;;;;27.33;47.04;99520.47;4352711;27;36857;-95
2023/05/25 12:40:10;;;;;;;;;;;;;;;27.86;48.63;99514.53;4388761;27;37000;-96
2023/05/25 12:44:00;;;;;;;;;;;;;;;28.28;44.67;99519.28;4340643;27;32498;-96
2023/05/25 12:46:58;;;;;;;;;;;;;;;28.89;42.06;99514.22;4381437;27;34222;-95
2023/05/25 12:51:09;;;;;;;;;;;;;;;28.72;43.75;99512.09;4344910;27;36437;-96
2023/05/25 12:54:11;;;;;;;;;;;;;;;29.12;41.79;99509.56;4399475;27;34961;-96
2023/05/25 12:57:58;;;;;;;;;;;;;;;28.33;42.13;99514.41;4359256;33;33735;-96
2023/05/25 13:00:56;;;;;;;;;;;;;;;27.98;44.91;99502.03;4353957;27;33429;-95
2023/05/25 13:03:57;;;;;;;;;;;;;;;28.25;46.85;99501.59;4378122;27;35936;-96
2023/05/25 13:06:51;;;;;;;;;;;;;;;28.45;45.11;99502.66;4376902;32;34969;-95
2023/05/25 13:09:43;;;;;;;;;;;;;;;28.65;42.81;99497.50;4382313;32;32754;-95
2023/05/25 13:12:15;;;;;;;;;;;;;;;28.98;43.37;99495.63;4401009;27;33960;-95
2023/05/25 13:14:44;;;;;;;;;;;;;;;28.64;45.89;99483.25;4369928;32;34192;-95
2023/05/25 13:17:28;;;;;;;;;;;;;;;29.04;42.03;99484.38;4395087;32;34600;-95
2023/05/25 13:19:56;;;;;;;;;;;;;;;29.02;42.74;99492.56;4387475;32;33646;-95
2023/05/25 13:22:24;;;;;;;;;;;;;;;28.76;44.60;99486.72;4383049;27;33042;-95
2023/05/25 13:24:53;;;;;;;;;;;;;;;28.96;43.88;99486.88;4383125;32;35295;-94
2023/05/25 13:27:22;;;;;;;;;;;;;;;29.42;42.98;99480.25;4395711;32;35047;-96
2023/05/25 13:29:53;;;;;;;;;;;;;;;29.22;43.09;99477.47;4388179;27;34091;-95
2023/05/25 13:32:22;;;;;;;;;;;;;;;28.26;44.39;99465.00;4395509;32;34394;-94
2023/05/25 13:34:58;;;;;;;;;;;;;;;27.29;46.75;99470.91;4403932;32;35227;-94
2023/05/25 13:37:58;;;;;;;;;;;;;;;27.27;49.85;99462.16;4398934;32;34087;-95
2023/05/25 13:40:33;;;;;;;;;;;;;;;27.46;47.97;99463.38;4404160;27;34445;-92
2023/05/25 13:43:02;;;;;;;;;;;;;;;28.05;44.47;99457.75;4371322;32;34131;-90
2023/05/25 13:45:31;;;;;;;;;;;;;;;28.36;44.84;99448.03;4391859;32;35427;-94
2023/05/25 13:48:02;;;;;;;;;;;;;;;28.80;42.76;99447.97;4384626;32;34230;-93
2023/05/25 13:50:55;;;;;;;;;;;;;;;28.52;45.43;99449.44;4393845;32;34658;-94
2023/05/25 13:53:30;;;;;;;;;;;;;;;28.06;47.08;99440.72;4395217;32;33606;-93
2023/05/25 13:56:16;;;;;;;;;;;;;;;28.10;45.99;99439.47;4392932;32;35231;-94
2023/05/25 13:59:03;;;;;;;;;;;;;;;27.28;47.59;99445.13;4402412;27;34938;-93
2023/05/25 14:01:40;;;;;;;;;;;;;;;27.62;44.44;99437.97;4371177;32;33113;-95
2023/05/25 14:04:28;;;;;;;;;;;;;;;27.84;45.70;99428.19;4398947;32;31847;-93
2023/05/25 14:07:06;;;;;;;;;;;;;;;28.31;43.19;99427.97;4373347;32;35276;-94
2023/05/25 14:09:37;;;;;;;;;;;;;;;27.96;45.98;99429.06;4456899;27;35229;-93
2023/05/25 14:12:46;;;;;;;;;;;;;;;27.08;46.39;99427.09;4408988;32;33419;-93
2023/05/25 14:15:19;;;;;;;;;;;;;;;26.93;47.72;99423.78;4416586;32;34209;-93
2023/05/25 14:17:52;;;;;;;;;;;;;;;26.70;51.35;99421.06;4419399;27;36422;-92
2023/05/25 14:20:38;;;;;;;;;;;;;;;26.95;50.63;99421.84;4411513;32;33998;-92
2023/05/25 14:23:08;;;;;;;;;;;;;;;27.62;44.95;99415.72;4392889;27;32852;-93
2023/05/25 14:25:50;;;;;;;;;;;;;;;27.54;46.58;99418.16;4398404;32;34430;-94
2023/05/25 14:28:21;;;;;;;;;;;;;;;27.16;48.83;99427.34;4398332;32;35618;-92
2023/05/25 14:30:55;;;;;;;;;;;;;;;26.85;49.18;99417.22;4400754;32;34817;-93
2023/05/25 14:34:07;;;;;;;;;;;;;;;26.67;49.21;99413.31;4471671;27;33357;-95
2023/05/25 14:36:43;;;;;;;;;;;;;;;26.72;49.12;99415.59;4399875;32;35076;-95
2023/05/25 14:39:13;;;;;;;;;;;;;;;26.04;50.58;99412.66;4387996;32;33676;-96
2023/05/25 14:41:47;;;;;;;;;;;;;;;25.25;52.26;99412.09;4398802;32;34553;-94
2023/05/25 14:44:15;;;;;;;;;;;;;;;25.60;52.91;99409.56;4397206;32;34085;-94
2023/05/25 14:46:45;;;;;;;;;;;;;;;25.89;50.48;99406.63;4397728;32;32236;-96
2023/05/25 14:49:16;;;;;;;;;;;;;;;26.25;48.05;99400.38;4398865;32;35943;-95
2023/05/25 14:51:48;;;;;;;;;;;;;;;26.54;49.58;99396.47;4411222;27;35038;-94
2023/05/25 14:54:54;;;;;;;;;;;;;;;26.30;49.60;99400.03;4424105;27;33802;-94
2023/05/25 14:57:26;;;;;;;;;;;;;;;25.74;52.99;99403.22;4419500;27;34569;-96
2023/05/25 15:03:35;;;;;;;;;;;;;;;25.39;52.87;99405.78;4531019;27;36249;-96
2023/05/25 15:06:18;;;;;;;;;;;;;;;25.36;54.56;99398.87;4415339;32;33623;-96
2023/05/25 15:08:50;;;;;;;;;;;;;;;25.66;52.71;99410.94;4415762;32;35441;-96
2023/05/25 15:11:29;;;;;;;;;;;;;;;25.31;53.03;99406.34;4415604;32;35413;-95
2023/05/25 15:14:02;;;;;;;;;;;;;;;25.67;52.51;99402.81;4419552;32;34777;-94
2023/05/25 15:16:45;;;;;;;;;;;;;;;25.56;53.08;99402.75;4416948;32;33926;-96
2023/05/25 15:19:25;;;;;;;;;;;;;;;25.15;53.23;99402.03;4416625;32;34326;-96
2023/05/25 15:22:04;;;;;;;;;;;;;;;25.24;53.14;99408.53;4415373;32;35677;-95
2023/05/25 15:24:54;;;;;;;;;;;;;;;24.89;55.58;99406.53;4415948;32;34834;-95
2023/05/25 15:27:25;;;;;;;;;;;;;;;25.07;52.61;99404.38;4417802;32;34791;-95
2023/05/25 15:29:57;;;;;;;;;;;;;;;25.07;52.73;99404.38;4404442;32;34225;-95
2023/05/25 15:32:38;;;;;;;;;;;;;;;25.08;54.06;99403.44;4419095;32;35458;-93
2023/05/25 15:35:45;;;;;;;;;;;;;;;25.33;53.19;99401.75;4424788;27;34621;-96
2023/05/25 15:38:31;;;;;;;;;;;;;;;24.95;54.34;99405.22;4487778;27;33356;-95
2023/05/25 15:41:18;;;;;;;;;;;;;;;24.90;54.12;99402.91;4416313;32;33044;-95
2023/05/25 15:44:12;;;;;;;;;;;;;;;25.10;53.35;99404.19;4450476;27;35671;-95
2023/05/25 15:46:48;;;;;;;;;;;;;;;24.74;54.88;99400.44;4397767;32;35594;-94
2023/05/25 15:49:19;;;;;;;;;;;;;;;24.70;53.15;99409.59;4399217;32;34056;-95
2023/05/25 15:51:54;;;;;;;;;;;;;;;25.05;52.03;99395.66;4398265;32;34031;-94
2023/05/25 15:54:31;;;;;;;;;;;;;;;25.30;51.66;99401.94;4408199;27;36227;-93
2023/05/25 15:57:35;;;;;;;;;;;;;;;25.41;53.33;99399.34;4374278;32;33436;-96
2023/05/25 16:00:14;;;;;;;;;;;;;;;25.03;52.34;99394.91;4390955;27;32524;-94
2023/05/25 16:03:16;;;;;;;;;;;;;;;24.76;53.50;99395.00;4397245;32;33416;-94
2023/05/25 16:05:45;;;;;;;;;;;;;;;25.17;52.69;99393.94;4412447;32;35531;-95
2023/05/25 16:08:15;;;;;;;;;;;;;;;24.84;53.64;99394.47;4386611;32;34370;-95
2023/05/25 16:10:45;;;;;;;;;;;;;;;24.64;54.86;99396.72;4415685;32;33671;-95
2023/05/25 16:13:20;;;;;;;;;;;;;;;24.78;54.12;99407.25;4415508;32;34631;-95
2023/05/25 16:15:55;;;;;;;;;;;;;;;24.23;55.63;99402.97;4419511;27;35179;-94
2023/05/25 16:18:25;;;;;;;;;;;;;;;24.11;55.09;99403.78;4400784;32;35396;-95
2023/05/25 16:21:24;;;;;;;;;;;;;;;24.57;54.59;99404.25;4405324;32;33036;-94
2023/05/25 16:24:05;;;;;;;;;;;;;;;24.47;54.07;99410.28;4399442;32;33200;-95
2023/05/25 16:26:48;;;;;;;;;;;;;;;24.68;53.19;99403.53;4389670;32;36837;-94
2023/05/25 16:29:49;;;;;;;;;;;;;;;24.80;53.20;99393.84;4418594;32;34536;-96
2023/05/25 16:32:17;;;;;;;;;;;;;;;24.91;52.91;99393.94;4413115;32;33386;-96
2023/05/25 16:34:50;;;;;;;;;;;;;;;24.69;54.06;99396.38;4406680;27;32916;-96
2023/05/25 16:37:23;;;;;;;;;;;;;;;24.83;53.46;99400.75;4420917;27;35409;-95
2023/05/25 16:40:10;;;;;;;;;;;;;;;24.29;54.37;99402.56;4416442;32;34745;-96
2023/05/25 16:42:41;;;;;;;;;;;;;;;23.95;56.98;99399.47;4371401;32;31656;-94
2023/05/25 16:45:10;;;;;;;;;;;;;;;23.86;57.28;99405.41;4402065;27;34391;-95